sensor_id;sensor_type;location;lat;lon;timestamp;pressure;altitude;pressure_sealevel;temperature;humidity
75594;BME280;64176;49.156;7.810;2023-05-31T00:00:37;99512.78;;;13.83;53.23
75594;BME280;64176;49.156;7.810;2023-05-31T00:03:21;99519.63;;;14.04;53.14
75594;BME280;64176;49.156;7.810;2023-05-31T00:06:07;99518.75;;;14.11;52.44
75594;BME280;64176;49.156;7.810;2023-05-31T00:08:51;99524.94;;;13.80;53.02
75594;BME280;64176;49.156;7.810;2023-05-31T00:11:35;99516.16;;;14.05;51.97
75594;BME280;64176;49.156;7.810;2023-05-31T00:14:22;99513.66;;;13.90;52.99
75594;BME280;64176;49.156;7.810;2023-05-31T00:17:12;99514.59;;;13.68;53.36
75594;BME280;64176;49.156;7.810;2023-05-31T00:19:59;99514.56;;;13.74;53.97
75594;BME280;64176;49.156;7.810;2023-05-31T00:22:42;99518.84;;;13.90;53.30
75594;BME280;64176;49.156;7.810;2023-05-31T00:25:26;99514.53;;;13.83;53.20
75594;BME280;64176;49.156;7.810;2023-05-31T00:28:10;99505.84;;;13.85;53.30
75594;BME280;64176;49.156;7.810;2023-05-31T00:30:54;99514.59;;;13.65;53.78
75594;BME280;64176;49.156;7.810;2023-05-31T00:33:38;99517.19;;;13.60;53.98
75594;BME280;64176;49.156;7.810;2023-05-31T00:36:22;99519.81;;;13.57;54.02
75594;BME280;64176;49.156;7.810;2023-05-31T00:39:09;99518.13;;;13.33;54.41
75594;BME280;64176;49.156;7.810;2023-05-31T00:41:54;99523.31;;;13.30;54.75
75594;BME280;64176;49.156;7.810;2023-05-31T00:44:39;99525.91;;;13.32;54.78
75594;BME280;64176;49.156;7.810;2023-05-31T00:47:31;99523.28;;;13.55;52.94
75594;BME280;64176;49.156;7.810;2023-05-31T00:50:16;99523.28;;;13.41;54.40
75594;BME280;64176;49.156;7.810;2023-05-31T00:53:04;99524.16;;;13.47;53.82
75594;BME280;64176;49.156;7.810;2023-05-31T00:55:52;99524.66;;;14.36;48.65
75594;BME280;64176;49.156;7.810;2023-05-31T00:58:36;99507.13;;;14.75;47.06
75594;BME280;64176;49.156;7.810;2023-05-31T01:01:24;99512.56;;;14.41;48.41
75594;BME280;64176;49.156;7.810;2023-05-31T01:04:16;99519.63;;;14.10;50.75
75594;BME280;64176;49.156;7.810;2023-05-31T01:07:01;99524.03;;;13.92;51.48
75594;BME280;64176;49.156;7.810;2023-05-31T01:09:45;99515.81;;;14.72;47.28
75594;BME280;64176;49.156;7.810;2023-05-31T01:12:38;99509.28;;;15.25;44.87
75594;BME280;64176;49.156;7.810;2023-05-31T01:15:31;99522.09;;;14.33;48.97
75594;BME280;64176;49.156;7.810;2023-05-31T01:18:20;99519.44;;;14.50;47.30
75594;BME280;64176;49.156;7.810;2023-05-31T01:21:08;99523.59;;;14.74;47.59
75594;BME280;64176;49.156;7.810;2023-05-31T01:24:19;99519.50;;;14.33;48.63
75594;BME280;64176;49.156;7.810;2023-05-31T01:27:10;99515.28;;;14.11;49.62
75594;BME280;64176;49.156;7.810;2023-05-31T01:29:55;99517.66;;;14.56;47.78
75594;BME280;64176;49.156;7.810;2023-05-31T01:32:49;99508.78;;;14.85;46.36
75594;BME280;64176;49.156;7.810;2023-05-31T01:35:35;99516.66;;;14.76;46.85
75594;BME280;64176;49.156;7.810;2023-05-31T01:38:19;99522.03;;;14.48;47.52
75594;BME280;64176;49.156;7.810;2023-05-31T01:41:04;99513.47;;;14.25;49.40
75594;BME280;64176;49.156;7.810;2023-05-31T01:43:57;99513.56;;;14.05;49.73
75594;BME280;64176;49.156;7.810;2023-05-31T01:46:43;99518.03;;;13.80;51.46
75594;BME280;64176;49.156;7.810;2023-05-31T01:49:29;99516.91;;;14.35;48.39
75594;BME280;64176;49.156;7.810;2023-05-31T01:52:15;99505.41;;;14.72;46.20
75594;BME280;64176;49.156;7.810;2023-05-31T01:55:02;99499.56;;;14.40;47.99
75594;BME280;64176;49.156;7.810;2023-05-31T01:57:49;99502.09;;;14.47;47.67
75594;BME280;64176;49.156;7.810;2023-05-31T02:00:37;99498.88;;;13.95;50.36
75594;BME280;64176;49.156;7.810;2023-05-31T02:03:21;99498.09;;;13.76;51.36
75594;BME280;64176;49.156;7.810;2023-05-31T02:06:09;99499.03;;;13.54;51.48
75594;BME280;64176;49.156;7.810;2023-05-31T02:08:57;99506.47;;;14.45;48.15
75594;BME280;64176;49.156;7.810;2023-05-31T02:11:44;99495.06;;;14.65;47.14
75594;BME280;64176;49.156;7.810;2023-05-31T02:14:30;99508.00;;;14.75;46.71
75594;BME280;64176;49.156;7.810;2023-05-31T02:17:14;99506.34;;;14.65;47.43
75594;BME280;64176;49.156;7.810;2023-05-31T02:20:04;99505.41;;;14.69;46.50
75594;BME280;64176;49.156;7.810;2023-05-31T02:22:50;99479.59;;;14.43;46.66
75594;BME280;64176;49.156;7.810;2023-05-31T02:25:34;99502.13;;;14.37;48.41
75594;BME280;64176;49.156;7.810;2023-05-31T02:28:18;99501.38;;;14.18;48.76
75594;BME280;64176;49.156;7.810;2023-05-31T02:31:02;99494.97;;;14.75;45.89
75594;BME280;64176;49.156;7.810;2023-05-31T02:33:47;99498.25;;;15.00;45.40
75594;BME280;64176;49.156;7.810;2023-05-31T02:36:34;99507.13;;;14.72;46.59
75594;BME280;64176;49.156;7.810;2023-05-31T02:39:18;99503.91;;;14.30;48.02
75594;BME280;64176;49.156;7.810;2023-05-31T02:42:02;99500.34;;;14.52;47.57
75594;BME280;64176;49.156;7.810;2023-05-31T02:44:46;99502.25;;;14.18;49.23
75594;BME280;64176;49.156;7.810;2023-05-31T02:47:30;99512.78;;;13.90;49.92
75594;BME280;64176;49.156;7.810;2023-05-31T02:50:23;99506.56;;;14.24;48.09
75594;BME280;64176;49.156;7.810;2023-05-31T02:53:12;99502.94;;;14.52;47.04
75594;BME280;64176;49.156;7.810;2023-05-31T02:56:19;99506.50;;;14.41;47.66
75594;BME280;64176;49.156;7.810;2023-05-31T02:59:27;99506.47;;;14.36;47.34
75594;BME280;64176;49.156;7.810;2023-05-31T03:02:22;99515.81;;;14.74;46.03
75594;BME280;64176;49.156;7.810;2023-05-31T03:05:28;99514.25;;;14.36;48.05
75594;BME280;64176;49.156;7.810;2023-05-31T03:08:17;99522.06;;;14.38;47.51
75594;BME280;64176;49.156;7.810;2023-05-31T03:11:01;99523.84;;;14.30;47.18
75594;BME280;64176;49.156;7.810;2023-05-31T03:13:45;99516.03;;;14.36;47.61
75594;BME280;64176;49.156;7.810;2023-05-31T03:16:29;99521.09;;;14.63;46.39
75594;BME280;64176;49.156;7.810;2023-05-31T03:19:14;99511.38;;;14.86;45.34
75594;BME280;64176;49.156;7.810;2023-05-31T03:22:01;99527.16;;;14.61;46.59
75594;BME280;64176;49.156;7.810;2023-05-31T03:24:48;99521.00;;;14.75;48.03
75594;BME280;64176;49.156;7.810;2023-05-31T03:27:34;99524.28;;;15.02;46.77
75594;BME280;64176;49.156;7.810;2023-05-31T03:30:18;99517.75;;;14.46;47.55
75594;BME280;64176;49.156;7.810;2023-05-31T03:33:11;99515.16;;;15.48;45.00
75594;BME280;64176;49.156;7.810;2023-05-31T03:35:55;99520.69;;;15.13;45.21
75594;BME280;64176;49.156;7.810;2023-05-31T03:38:39;99525.16;;;14.99;45.92
75594;BME280;64176;49.156;7.810;2023-05-31T03:41:23;99514.09;;;14.70;46.84
75594;BME280;64176;49.156;7.810;2023-05-31T03:44:07;99519.19;;;14.82;46.46
75594;BME280;64176;49.156;7.810;2023-05-31T03:46:54;99521.94;;;14.62;47.27
75594;BME280;64176;49.156;7.810;2023-05-31T03:49:41;99526.22;;;14.72;46.59
75594;BME280;64176;49.156;7.810;2023-05-31T03:52:28;99531.50;;;14.62;47.18
75594;BME280;64176;49.156;7.810;2023-05-31T03:55:13;99530.84;;;14.14;49.93
75594;BME280;64176;49.156;7.810;2023-05-31T03:57:58;99534.53;;;13.51;51.72
75594;BME280;64176;49.156;7.810;2023-05-31T04:00:45;99535.41;;;13.57;52.51
75594;BME280;64176;49.156;7.810;2023-05-31T04:03:29;99519.81;;;13.48;52.87
75594;BME280;64176;49.156;7.810;2023-05-31T04:06:13;99524.13;;;13.49;52.71
75594;BME280;64176;49.156;7.810;2023-05-31T04:08:57;99542.34;;;13.34;53.18
75594;BME280;64176;49.156;7.810;2023-05-31T04:11:44;99543.22;;;13.24;53.85
75594;BME280;64176;49.156;7.810;2023-05-31T04:14:31;99542.34;;;13.11;54.38
75594;BME280;64176;49.156;7.810;2023-05-31T04:17:17;99543.19;;;13.11;54.38
75594;BME280;64176;49.156;7.810;2023-05-31T04:20:02;99525.88;;;12.94;54.92
75594;BME280;64176;49.156;7.810;2023-05-31T04:22:51;99531.97;;;13.34;54.56
75594;BME280;64176;49.156;7.810;2023-05-31T04:25:37;99547.53;;;13.47;54.52
75594;BME280;64176;49.156;7.810;2023-05-31T04:28:21;99544.06;;;13.12;55.81
75594;BME280;64176;49.156;7.810;2023-05-31T04:31:08;99544.03;;;13.04;56.30
75594;BME280;64176;49.156;7.810;2023-05-31T04:33:58;99534.56;;;13.19;56.38
75594;BME280;64176;49.156;7.810;2023-05-31T04:36:47;99535.44;;;13.19;55.52
75594;BME280;64176;49.156;7.810;2023-05-31T04:39:36;99538.88;;;13.17;55.75
75594;BME280;64176;49.156;7.810;2023-05-31T04:42:21;99541.47;;;13.27;55.85
75594;BME280;64176;49.156;7.810;2023-05-31T04:45:13;99541.50;;;13.36;55.75
75594;BME280;64176;49.156;7.810;2023-05-31T04:48:05;99542.31;;;13.55;55.05
75594;BME280;64176;49.156;7.810;2023-05-31T04:50:50;99533.59;;;13.73;54.53
75594;BME280;64176;49.156;7.810;2023-05-31T04:53:37;99539.69;;;13.61;54.65
75594;BME280;64176;49.156;7.810;2023-05-31T04:56:24;99533.59;;;13.76;54.41
75594;BME280;64176;49.156;7.810;2023-05-31T04:59:11;99537.16;;;13.46;55.40
75594;BME280;64176;49.156;7.810;2023-05-31T05:01:56;99539.63;;;13.85;54.16
75594;BME280;64176;49.156;7.810;2023-05-31T05:04:43;99526.59;;;13.95;53.79
75594;BME280;64176;49.156;7.810;2023-05-31T05:07:30;99537.69;;;14.45;50.97
75594;BME280;64176;49.156;7.810;2023-05-31T05:10:14;99536.81;;;14.37;51.94
75594;BME280;64176;49.156;7.810;2023-05-31T05:13:04;99541.22;;;14.23;52.60
75594;BME280;64176;49.156;7.810;2023-05-31T05:15:48;99542.16;;;14.11;53.11
75594;BME280;64176;49.156;7.810;2023-05-31T05:18:36;99547.16;;;14.55;50.89
75594;BME280;64176;49.156;7.810;2023-05-31T05:21:21;99540.06;;;14.77;51.71
75594;BME280;64176;49.156;7.810;2023-05-31T05:24:05;99542.25;;;15.30;49.92
75594;BME280;64176;49.156;7.810;2023-05-31T05:26:51;99545.81;;;15.19;50.01
75594;BME280;64176;49.156;7.810;2023-05-31T05:29:34;99548.22;;;15.42;50.29
75594;BME280;64176;49.156;7.810;2023-05-31T05:32:19;99537.69;;;15.54;49.45
75594;BME280;64176;49.156;7.810;2023-05-31T05:35:05;99550.56;;;15.71;48.42
75594;BME280;64176;49.156;7.810;2023-05-31T05:37:52;99545.16;;;15.89;47.14
75594;BME280;64176;49.156;7.810;2023-05-31T05:40:37;99533.50;;;16.17;46.78
75594;BME280;64176;49.156;7.810;2023-05-31T05:43:21;99542.44;;;16.65;43.92
75594;BME280;64176;49.156;7.810;2023-05-31T05:46:20;99547.53;;;16.74;44.42
75594;BME280;64176;49.156;7.810;2023-05-31T05:49:04;99549.06;;;16.88;43.75
75594;BME280;64176;49.156;7.810;2023-05-31T05:51:49;99552.88;;;17.22;41.87
75594;BME280;64176;49.156;7.810;2023-05-31T05:54:34;99546.81;;;17.69;39.03
75594;BME280;64176;49.156;7.810;2023-05-31T05:57:20;99538.19;;;17.66;41.13
75594;BME280;64176;49.156;7.810;2023-05-31T06:00:10;99537.31;;;17.67;40.26
75594;BME280;64176;49.156;7.810;2023-05-31T06:02:57;99548.69;;;18.09;39.72
75594;BME280;64176;49.156;7.810;2023-05-31T06:05:41;99544.09;;;18.20;38.61
75594;BME280;64176;49.156;7.810;2023-05-31T06:08:25;99547.09;;;18.42;37.74
75594;BME280;64176;49.156;7.810;2023-05-31T06:11:09;99546.75;;;18.59;38.32
75594;BME280;64176;49.156;7.810;2023-05-31T06:13:57;99548.31;;;18.67;37.90
75594;BME280;64176;49.156;7.810;2023-05-31T06:16:46;99549.28;;;19.00;36.71
75594;BME280;64176;49.156;7.810;2023-05-31T06:19:33;99554.69;;;18.92;36.97
75594;BME280;64176;49.156;7.810;2023-05-31T06:22:17;99552.31;;;19.19;36.26
75594;BME280;64176;49.156;7.810;2023-05-31T06:25:02;99551.19;;;19.65;35.92
75594;BME280;64176;49.156;7.810;2023-05-31T06:27:46;99539.41;;;21.25;32.13
75594;BME280;64176;49.156;7.810;2023-05-31T06:30:30;99541.41;;;22.18;30.94
75594;BME280;64176;49.156;7.810;2023-05-31T06:33:17;99541.31;;;21.71;30.85
75594;BME280;64176;49.156;7.810;2023-05-31T06:36:04;99532.59;;;22.64;29.30
75594;BME280;64176;49.156;7.810;2023-05-31T06:38:50;99543.81;;;20.68;31.98
75594;BME280;64176;49.156;7.810;2023-05-31T06:41:37;99541.06;;;22.27;29.83
75594;BME280;64176;49.156;7.810;2023-05-31T06:44:41;99527.44;;;22.84;28.82
75594;BME280;64176;49.156;7.810;2023-05-31T06:47:32;99540.53;;;23.07;28.71
75594;BME280;64176;49.156;7.810;2023-05-31T06:50:35;99535.22;;;21.18;30.56
75594;BME280;64176;49.156;7.810;2023-05-31T06:53:42;99530.13;;;22.59;29.34
75594;BME280;64176;49.156;7.810;2023-05-31T06:56:43;99534.38;;;22.63;29.09
75594;BME280;64176;49.156;7.810;2023-05-31T06:59:29;99534.97;;;22.25;29.33
75594;BME280;64176;49.156;7.810;2023-05-31T07:02:15;99541.09;;;22.25;29.10
75594;BME280;64176;49.156;7.810;2023-05-31T07:05:02;99522.28;;;22.58;29.06
75594;BME280;64176;49.156;7.810;2023-05-31T07:07:48;99534.81;;;22.52;29.55
75594;BME280;64176;49.156;7.810;2023-05-31T07:10:35;99540.91;;;22.31;29.41
75594;BME280;64176;49.156;7.810;2023-05-31T07:13:21;99527.41;;;23.48;28.34
75594;BME280;64176;49.156;7.810;2023-05-31T07:16:06;99523.69;;;23.32;28.30
75594;BME280;64176;49.156;7.810;2023-05-31T07:18:51;99524.84;;;24.26;27.08
75594;BME280;64176;49.156;7.810;2023-05-31T07:21:36;99526.94;;;23.38;28.54
75594;BME280;64176;49.156;7.810;2023-05-31T07:24:21;99516.66;;;23.93;28.45
75594;BME280;64176;49.156;7.810;2023-05-31T07:27:08;99515.50;;;23.17;28.31
75594;BME280;64176;49.156;7.810;2023-05-31T07:29:54;99521.47;;;23.01;29.69
75594;BME280;64176;49.156;7.810;2023-05-31T07:32:39;99516.41;;;22.96;29.68
75594;BME280;64176;49.156;7.810;2023-05-31T07:35:26;99510.97;;;22.99;29.71
75594;BME280;64176;49.156;7.810;2023-05-31T07:38:10;99515.53;;;22.29;31.44
75594;BME280;64176;49.156;7.810;2023-05-31T07:40:56;99520.84;;;22.27;31.54
75594;BME280;64176;49.156;7.810;2023-05-31T07:43:43;99514.28;;;21.91;32.23
75594;BME280;64176;49.156;7.810;2023-05-31T07:46:30;99521.53;;;20.54;34.22
75594;BME280;64176;49.156;7.810;2023-05-31T07:49:14;99493.25;;;21.15;33.81
75594;BME280;64176;49.156;7.810;2023-05-31T07:51:58;99508.16;;;20.32;35.03
75594;BME280;64176;49.156;7.810;2023-05-31T07:54:45;99505.97;;;21.28;33.40
75594;BME280;64176;49.156;7.810;2023-05-31T07:57:29;99511.94;;;21.58;33.42
75594;BME280;64176;49.156;7.810;2023-05-31T08:00:13;99495.59;;;21.24;34.01
75594;BME280;64176;49.156;7.810;2023-05-31T08:02:57;99512.66;;;21.63;33.88
75594;BME280;64176;49.156;7.810;2023-05-31T08:05:42;99493.91;;;21.72;33.63
75594;BME280;64176;49.156;7.810;2023-05-31T08:08:26;99502.28;;;21.59;33.77
75594;BME280;64176;49.156;7.810;2023-05-31T08:11:14;99493.31;;;21.39;34.56
75594;BME280;64176;49.156;7.810;2023-05-31T08:13:57;99494.91;;;21.19;34.97
75594;BME280;64176;49.156;7.810;2023-05-31T08:16:44;99495.28;;;21.33;34.40
75594;BME280;64176;49.156;7.810;2023-05-31T08:19:28;99493.31;;;21.88;33.75
75594;BME280;64176;49.156;7.810;2023-05-31T08:22:12;99476.91;;;22.06;33.99
75594;BME280;64176;49.156;7.810;2023-05-31T08:24:59;99493.03;;;22.20;33.80
75594;BME280;64176;49.156;7.810;2023-05-31T08:27:43;99487.78;;;22.20;34.44
75594;BME280;64176;49.156;7.810;2023-05-31T08:30:27;99488.50;;;22.00;34.31
75594;BME280;64176;49.156;7.810;2023-05-31T08:33:10;99487.13;;;21.65;34.39
75594;BME280;64176;49.156;7.810;2023-05-31T08:36:01;99473.34;;;21.59;34.95
75594;BME280;64176;49.156;7.810;2023-05-31T08:38:48;99481.91;;;21.40;36.02
75594;BME280;64176;49.156;7.810;2023-05-31T08:41:38;99478.84;;;21.28;35.60
75594;BME280;64176;49.156;7.810;2023-05-31T08:44:29;99478.81;;;20.75;36.50
75594;BME280;64176;49.156;7.810;2023-05-31T08:47:46;99472.59;;;21.55;34.80
75594;BME280;64176;49.156;7.810;2023-05-31T08:50:35;99479.13;;;21.43;35.31
75594;BME280;64176;49.156;7.810;2023-05-31T08:53:20;99480.16;;;21.13;36.37
75594;BME280;64176;49.156;7.810;2023-05-31T08:56:07;99487.66;;;20.73;36.95
75594;BME280;64176;49.156;7.810;2023-05-31T08:58:54;99474.19;;;21.34;36.28
75594;BME280;64176;49.156;7.810;2023-05-31T09:01:38;99485.72;;;20.51;37.27
75594;BME280;64176;49.156;7.810;2023-05-31T09:04:23;99479.47;;;21.34;36.17
75594;BME280;64176;49.156;7.810;2023-05-31T09:07:09;99464.97;;;21.48;36.29
75594;BME280;64176;49.156;7.810;2023-05-31T09:09:53;99467.53;;;21.74;35.81
75594;BME280;64176;49.156;7.810;2023-05-31T09:12:40;99469.81;;;21.60;36.01
75594;BME280;64176;49.156;7.810;2023-05-31T09:15:25;99473.41;;;21.32;35.86
75594;BME280;64176;49.156;7.810;2023-05-31T09:18:14;99459.69;;;20.98;36.45
75594;BME280;64176;49.156;7.810;2023-05-31T09:21:07;99469.06;;;21.31;36.42
75594;BME280;64176;49.156;7.810;2023-05-31T09:23:54;99472.69;;;21.01;36.15
75594;BME280;64176;49.156;7.810;2023-05-31T09:26:46;99461.19;;;21.31;36.08
75594;BME280;64176;49.156;7.810;2023-05-31T09:29:31;99462.28;;;21.49;36.11
75594;BME280;64176;49.156;7.810;2023-05-31T09:32:18;99468.09;;;21.59;36.00
75594;BME280;64176;49.156;7.810;2023-05-31T09:35:16;99458.34;;;21.37;36.13
75594;BME280;64176;49.156;7.810;2023-05-31T09:38:05;99453.41;;;21.53;36.50
75594;BME280;64176;49.156;7.810;2023-05-31T09:40:51;99445.28;;;21.59;35.49
75594;BME280;64176;49.156;7.810;2023-05-31T09:43:39;99452.28;;;21.84;35.09
75594;BME280;64176;49.156;7.810;2023-05-31T09:46:27;99450.03;;;21.73;36.04
75594;BME280;64176;49.156;7.810;2023-05-31T09:49:11;99446.75;;;21.90;34.67
75594;BME280;64176;49.156;7.810;2023-05-31T09:51:58;99460.59;;;22.20;33.65
75594;BME280;64176;49.156;7.810;2023-05-31T09:54:42;99448.47;;;21.91;33.75
75594;BME280;64176;49.156;7.810;2023-05-31T09:57:34;99443.59;;;22.05;33.31
75594;BME280;64176;49.156;7.810;2023-05-31T10:00:25;99442.81;;;21.78;33.58
75594;BME280;64176;49.156;7.810;2023-05-31T10:03:12;99454.06;;;22.06;32.78
75594;BME280;64176;49.156;7.810;2023-05-31T10:05:56;99456.81;;;22.03;32.17
75594;BME280;64176;49.156;7.810;2023-05-31T10:08:41;99447.94;;;22.06;31.25
75594;BME280;64176;49.156;7.810;2023-05-31T10:11:32;99436.63;;;22.04;31.74
75594;BME280;64176;49.156;7.810;2023-05-31T10:14:24;99456.72;;;22.28;31.73
75594;BME280;64176;49.156;7.810;2023-05-31T10:17:14;99444.06;;;21.91;31.53
75594;BME280;64176;49.156;7.810;2023-05-31T10:20:03;99455.97;;;22.25;31.10
75594;BME280;64176;49.156;7.810;2023-05-31T10:22:54;99441.16;;;22.44;30.97
75594;BME280;64176;49.156;7.810;2023-05-31T10:25:54;99434.84;;;22.70;30.35
75594;BME280;64176;49.156;7.810;2023-05-31T10:29:10;99438.75;;;22.83;30.04
75594;BME280;64176;49.156;7.810;2023-05-31T10:32:06;99442.41;;;22.79;30.40
75594;BME280;64176;49.156;7.810;2023-05-31T10:34:52;99438.72;;;22.61;29.32
75594;BME280;64176;49.156;7.810;2023-05-31T10:37:40;99430.63;;;22.87;28.87
75594;BME280;64176;49.156;7.810;2023-05-31T10:46:29;99432.91;;;22.97;29.58
75594;BME280;64176;49.156;7.810;2023-05-31T10:49:18;99418.88;;;22.74;29.59
75594;BME280;64176;49.156;7.810;2023-05-31T10:52:08;99421.28;;;23.21;28.35
75594;BME280;64176;49.156;7.810;2023-05-31T10:58:05;99430.59;;;23.30;28.02
75594;BME280;64176;49.156;7.810;2023-05-31T11:00:53;99430.91;;;23.22;28.47
75594;BME280;64176;49.156;7.810;2023-05-31T11:03:50;99425.63;;;23.02;28.73
75594;BME280;64176;49.156;7.810;2023-05-31T11:06:34;99418.06;;;23.14;28.47
75594;BME280;64176;49.156;7.810;2023-05-31T11:09:23;99403.28;;;22.90;28.26
75594;BME280;64176;49.156;7.810;2023-05-31T11:12:31;99412.91;;;23.11;29.00
75594;BME280;64176;49.156;7.810;2023-05-31T11:15:15;99406.31;;;23.62;28.07
75594;BME280;64176;49.156;7.810;2023-05-31T11:17:59;99399.13;;;23.25;28.09
75594;BME280;64176;49.156;7.810;2023-05-31T11:20:44;99412.28;;;23.66;28.40
75594;BME280;64176;49.156;7.810;2023-05-31T11:23:29;99420.44;;;23.99;26.98
75594;BME280;64176;49.156;7.810;2023-05-31T11:26:16;99407.19;;;23.81;27.76
75594;BME280;64176;49.156;7.810;2023-05-31T11:29:03;99400.75;;;23.68;26.79
75594;BME280;64176;49.156;7.810;2023-05-31T11:31:56;99404.59;;;23.61;27.00
75594;BME280;64176;49.156;7.810;2023-05-31T11:35:02;99397.69;;;23.18;27.23
75594;BME280;64176;49.156;7.810;2023-05-31T11:37:48;99398.91;;;23.89;27.19
75594;BME280;64176;49.156;7.810;2023-05-31T11:40:34;99396.81;;;22.77;27.91
75594;BME280;64176;49.156;7.810;2023-05-31T11:43:24;99395.19;;;23.74;26.97
75594;BME280;64176;49.156;7.810;2023-05-31T11:46:12;99383.28;;;23.84;26.85
75594;BME280;64176;49.156;7.810;2023-05-31T11:48:59;99376.84;;;24.27;27.55
75594;BME280;64176;49.156;7.810;2023-05-31T11:51:44;99390.13;;;24.26;26.18
75594;BME280;64176;49.156;7.810;2023-05-31T11:54:32;99387.63;;;23.67;26.30
75594;BME280;64176;49.156;7.810;2023-05-31T11:57:17;99387.56;;;24.06;25.92
75594;BME280;64176;49.156;7.810;2023-05-31T12:00:04;99381.84;;;23.96;26.11
75594;BME280;64176;49.156;7.810;2023-05-31T12:02:55;99385.63;;;23.72;25.69
75594;BME280;64176;49.156;7.810;2023-05-31T12:05:56;99384.28;;;23.82;26.03
75594;BME280;64176;49.156;7.810;2023-05-31T12:08:43;99379.13;;;24.16;25.14
75594;BME280;64176;49.156;7.810;2023-05-31T12:11:28;99373.59;;;24.21;25.85
75594;BME280;64176;49.156;7.810;2023-05-31T12:14:14;99361.59;;;23.97;25.66
75594;BME280;64176;49.156;7.810;2023-05-31T12:17:02;99359.38;;;24.06;26.43
75594;BME280;64176;49.156;7.810;2023-05-31T12:19:50;99358.75;;;24.54;26.45
75594;BME280;64176;49.156;7.810;2023-05-31T12:22:34;99348.94;;;24.03;25.37
75594;BME280;64176;49.156;7.810;2023-05-31T12:25:23;99348.34;;;23.40;26.64
75594;BME280;64176;49.156;7.810;2023-05-31T12:28:10;99351.56;;;24.58;26.04
75594;BME280;64176;49.156;7.810;2023-05-31T12:30:55;99350.25;;;24.30;26.26
75594;BME280;64176;49.156;7.810;2023-05-31T12:33:40;99357.75;;;24.40;25.11
75594;BME280;64176;49.156;7.810;2023-05-31T12:36:28;99345.06;;;24.10;26.15
75594;BME280;64176;49.156;7.810;2023-05-31T12:39:22;99344.03;;;24.50;26.49
75594;BME280;64176;49.156;7.810;2023-05-31T12:42:10;99342.53;;;24.79;26.17
75594;BME280;64176;49.156;7.810;2023-05-31T12:44:54;99347.66;;;24.65;27.19
75594;BME280;64176;49.156;7.810;2023-05-31T12:47:38;99344.28;;;24.27;25.80
75594;BME280;64176;49.156;7.810;2023-05-31T12:50:28;99339.97;;;24.60;25.79
75594;BME280;64176;49.156;7.810;2023-05-31T12:53:15;99339.19;;;24.58;25.77
75594;BME280;64176;49.156;7.810;2023-05-31T12:56:00;99335.78;;;23.84;27.36
75594;BME280;64176;49.156;7.810;2023-05-31T12:58:46;99333.72;;;24.27;27.27
75594;BME280;64176;49.156;7.810;2023-05-31T13:01:39;99338.81;;;24.83;26.78
75594;BME280;64176;49.156;7.810;2023-05-31T13:04:24;99337.63;;;24.37;26.14
75594;BME280;64176;49.156;7.810;2023-05-31T13:07:11;99325.75;;;24.80;25.90
75594;BME280;64176;49.156;7.810;2023-05-31T13:09:58;99322.88;;;24.67;25.93
75594;BME280;64176;49.156;7.810;2023-05-31T13:12:44;99305.44;;;24.63;26.33
75594;BME280;64176;49.156;7.810;2023-05-31T13:15:28;99313.91;;;24.53;26.76
75594;BME280;64176;49.156;7.810;2023-05-31T13:18:12;99317.34;;;24.55;26.95
75594;BME280;64176;49.156;7.810;2023-05-31T13:20:59;99315.50;;;24.74;27.19
75594;BME280;64176;49.156;7.810;2023-05-31T13:23:42;99305.13;;;24.87;27.01
75594;BME280;64176;49.156;7.810;2023-05-31T13:26:27;99308.81;;;24.14;26.62
75594;BME280;64176;49.156;7.810;2023-05-31T13:29:13;99320.06;;;23.81;26.42
75594;BME280;64176;49.156;7.810;2023-05-31T13:32:02;99309.44;;;24.72;27.58
75594;BME280;64176;49.156;7.810;2023-05-31T13:34:47;99295.66;;;25.00;26.92
75594;BME280;64176;49.156;7.810;2023-05-31T13:37:31;99302.34;;;25.23;25.87
75594;BME280;64176;49.156;7.810;2023-05-31T13:40:16;99300.88;;;24.84;25.86
75594;BME280;64176;49.156;7.810;2023-05-31T13:43:02;99300.94;;;23.76;26.01
75594;BME280;64176;49.156;7.810;2023-05-31T13:45:48;99294.78;;;24.30;25.80
75594;BME280;64176;49.156;7.810;2023-05-31T13:48:38;99298.22;;;25.01;24.61
75594;BME280;64176;49.156;7.810;2023-05-31T13:51:24;99301.78;;;25.00;24.28
75594;BME280;64176;49.156;7.810;2023-05-31T13:54:11;99290.06;;;24.72;24.11
75594;BME280;64176;49.156;7.810;2023-05-31T13:56:59;99282.75;;;24.94;23.50
75594;BME280;64176;49.156;7.810;2023-05-31T13:59:43;99285.06;;;24.83;24.74
75594;BME280;64176;49.156;7.810;2023-05-31T14:02:27;99286.34;;;25.09;24.41
75594;BME280;64176;49.156;7.810;2023-05-31T14:05:12;99275.47;;;24.11;25.06
75594;BME280;64176;49.156;7.810;2023-05-31T14:07:56;99278.00;;;24.83;26.30
75594;BME280;64176;49.156;7.810;2023-05-31T14:10:43;99276.53;;;24.78;25.53
75594;BME280;64176;49.156;7.810;2023-05-31T14:13:27;99278.84;;;24.84;24.94
75594;BME280;64176;49.156;7.810;2023-05-31T14:16:15;99261.19;;;25.01;25.59
75594;BME280;64176;49.156;7.810;2023-05-31T14:19:01;99278.44;;;24.91;26.10
75594;BME280;64176;49.156;7.810;2023-05-31T14:21:48;99278.59;;;25.38;25.37
75594;BME280;64176;49.156;7.810;2023-05-31T14:24:35;99276.63;;;25.09;24.82
75594;BME280;64176;49.156;7.810;2023-05-31T14:27:19;99262.38;;;24.96;24.26
75594;BME280;64176;49.156;7.810;2023-05-31T14:30:03;99265.38;;;24.88;23.90
75594;BME280;64176;49.156;7.810;2023-05-31T14:32:47;99262.72;;;25.38;24.64
75594;BME280;64176;49.156;7.810;2023-05-31T14:35:31;99265.13;;;25.10;24.58
75594;BME280;64176;49.156;7.810;2023-05-31T14:38:15;99266.53;;;25.17;23.94
75594;BME280;64176;49.156;7.810;2023-05-31T14:41:02;99261.19;;;25.01;24.14
75594;BME280;64176;49.156;7.810;2023-05-31T14:43:48;99254.88;;;25.04;24.29
75594;BME280;64176;49.156;7.810;2023-05-31T14:46:32;99266.25;;;25.06;25.02
75594;BME280;64176;49.156;7.810;2023-05-31T14:49:16;99266.84;;;25.11;23.86
75594;BME280;64176;49.156;7.810;2023-05-31T14:52:03;99254.72;;;25.07;24.19
75594;BME280;64176;49.156;7.810;2023-05-31T14:54:48;99249.22;;;24.77;24.26